createdAt,value
2018-10-18T00:00:41.560Z,14.70
2018-10-18T00:03:10.016Z,14.60
2018-10-18T00:05:38.467Z,14.60
2018-10-18T00:08:06.935Z,14.60
2018-10-18T00:10:35.351Z,14.60
2018-10-18T00:13:04.133Z,14.60
2018-10-18T00:15:32.641Z,14.60
2018-10-18T00:18:01.091Z,14.60
2018-10-18T00:20:29.705Z,14.60
2018-10-18T00:22:58.149Z,14.60
2018-10-18T00:25:26.602Z,14.50
2018-10-18T00:27:55.045Z,14.50
2018-10-18T00:30:23.456Z,14.50
2018-10-18T00:32:51.905Z,14.50
2018-10-18T00:35:20.432Z,14.50
2018-10-18T00:37:48.867Z,14.50
2018-10-18T00:40:17.277Z,14.50
2018-10-18T00:42:46.932Z,14.50
2018-10-18T00:45:15.484Z,14.50
2018-10-18T00:47:43.948Z,14.50
2018-10-18T00:50:13.049Z,14.50
2018-10-18T00:52:41.660Z,14.50
2018-10-18T00:55:11.160Z,14.40
2018-10-18T00:57:40.397Z,14.40
2018-10-18T01:00:09.861Z,14.40
2018-10-18T01:02:38.347Z,14.40
2018-10-18T01:05:06.927Z,14.40
2018-10-18T01:07:35.325Z,14.30
2018-10-18T01:10:03.833Z,14.30
2018-10-18T01:12:32.709Z,14.20
2018-10-18T01:15:00.987Z,14.20
2018-10-18T01:17:29.408Z,14.20
2018-10-18T01:19:58.252Z,14.20
2018-10-18T01:22:26.680Z,14.20
2018-10-18T01:24:55.091Z,14.30
2018-10-18T01:27:23.747Z,14.20
2018-10-18T01:29:52.213Z,14.20
2018-10-18T01:32:20.579Z,14.20
2018-10-18T01:34:49.204Z,14.20
2018-10-18T01:37:17.730Z,14.20
2018-10-18T01:39:46.156Z,14.20
2018-10-18T01:42:15.008Z,14.20
2018-10-18T01:44:43.408Z,14.20
2018-10-18T01:47:11.816Z,14.20
2018-10-18T01:49:40.615Z,14.20
2018-10-18T01:52:09.053Z,14.20
2018-10-18T01:54:37.483Z,14.20
2018-10-18T01:57:06.773Z,14.20
2018-10-18T01:59:35.216Z,14.20
2018-10-18T02:02:03.741Z,14.20
2018-10-18T02:04:32.160Z,14.20
2018-10-18T02:07:00.572Z,14.20
2018-10-18T02:09:29.088Z,14.20
2018-10-18T02:11:57.543Z,14.20
2018-10-18T02:14:25.953Z,14.10
2018-10-18T02:16:54.363Z,14.10
2018-10-18T02:19:23.084Z,14.10
2018-10-18T02:21:51.484Z,14.10
2018-10-18T02:24:19.872Z,14.10
2018-10-18T02:26:48.460Z,14.10
2018-10-18T02:29:16.873Z,14.10
2018-10-18T02:31:45.299Z,14.10
2018-10-18T02:34:13.749Z,14.10
2018-10-18T02:36:42.163Z,14.10
2018-10-18T02:39:10.912Z,14.10
2018-10-18T02:41:39.746Z,14.10
2018-10-18T02:44:08.165Z,14.10
2018-10-18T02:46:36.592Z,14.10
2018-10-18T02:49:05.139Z,14.10
2018-10-18T02:51:33.553Z,14.10
2018-10-18T02:54:02.072Z,14.00
2018-10-18T02:56:30.732Z,14.00
2018-10-18T02:59:00.072Z,14.00
2018-10-18T03:01:28.459Z,14.00
2018-10-18T03:03:57.137Z,14.00
2018-10-18T03:06:25.517Z,13.90
2018-10-18T03:08:53.939Z,13.90
2018-10-18T03:11:22.564Z,13.90
2018-10-18T03:13:51.005Z,13.90
2018-10-18T03:16:19.472Z,13.80
2018-10-18T03:18:48.236Z,13.70
2018-10-18T03:21:16.625Z,13.70
2018-10-18T03:23:45.019Z,13.70
2018-10-18T03:26:13.499Z,13.70
2018-10-18T03:28:41.904Z,13.70
2018-10-18T03:31:10.352Z,13.60
2018-10-18T03:33:38.793Z,13.60
2018-10-18T03:36:07.271Z,13.60
2018-10-18T03:38:35.703Z,13.60
2018-10-18T03:41:04.704Z,13.60
2018-10-18T03:43:33.153Z,13.60
2018-10-18T03:46:02.569Z,13.70
2018-10-18T03:48:31.016Z,13.70
2018-10-18T03:50:59.462Z,13.70
2018-10-18T03:53:27.909Z,13.70
2018-10-18T03:55:56.505Z,13.70
2018-10-18T03:58:24.916Z,13.70
2018-10-18T04:00:53.319Z,13.70
2018-10-18T04:03:21.885Z,13.70
2018-10-18T04:05:50.330Z,13.70
2018-10-18T04:08:18.740Z,13.70
2018-10-18T04:10:47.400Z,13.70
2018-10-18T04:13:15.906Z,13.70
2018-10-18T04:15:44.326Z,13.70
2018-10-18T04:18:12.826Z,13.70
2018-10-18T04:20:41.224Z,13.70
2018-10-18T04:23:09.619Z,13.70
2018-10-18T04:25:38.186Z,13.70
2018-10-18T04:28:06.567Z,13.70
2018-10-18T04:30:35.522Z,13.70
2018-10-18T04:33:04.476Z,13.70
2018-10-18T04:35:32.935Z,13.70
2018-10-18T04:38:01.411Z,13.70
2018-10-18T04:40:29.826Z,13.60
2018-10-18T04:42:58.252Z,13.60
2018-10-18T04:45:26.674Z,13.60
2018-10-18T04:47:55.528Z,13.60
2018-10-18T04:50:23.883Z,13.60
2018-10-18T04:52:52.341Z,13.60
2018-10-18T04:55:21.254Z,13.60
2018-10-18T04:57:49.661Z,13.70
2018-10-18T05:00:18.065Z,13.70
2018-10-18T05:02:46.725Z,13.70
2018-10-18T05:05:56.242Z,13.70
2018-10-18T05:08:25.561Z,13.70
2018-10-18T05:10:54.044Z,13.70
2018-10-18T05:13:22.477Z,13.70
2018-10-18T05:15:51.239Z,13.70
2018-10-18T05:18:20.120Z,13.70
2018-10-18T05:20:48.663Z,13.70
2018-10-18T05:23:17.122Z,13.70
2018-10-18T05:25:46.381Z,13.70
2018-10-18T05:28:14.788Z,13.70
2018-10-18T05:30:43.275Z,13.70
2018-10-18T05:33:11.729Z,13.70
2018-10-18T05:35:40.177Z,13.70
2018-10-18T05:38:08.656Z,13.70
2018-10-18T05:40:37.092Z,13.70
2018-10-18T05:43:06.554Z,13.70
2018-10-18T05:45:35.193Z,13.70
2018-10-18T05:48:03.664Z,13.70
2018-10-18T05:50:32.104Z,13.60
2018-10-18T05:53:00.636Z,13.60
2018-10-18T05:55:29.046Z,13.60
2018-10-18T05:57:57.484Z,13.60
2018-10-18T06:00:25.965Z,13.60
2018-10-18T06:02:54.395Z,13.60
2018-10-18T06:05:22.841Z,13.60
2018-10-18T06:07:51.476Z,13.60
2018-10-18T06:10:31.055Z,13.60
2018-10-18T06:12:59.789Z,13.60
2018-10-18T06:15:28.241Z,13.60
2018-10-18T06:17:56.653Z,13.60
2018-10-18T06:20:25.574Z,13.60
2018-10-18T06:22:54.043Z,13.60
2018-10-18T06:25:22.437Z,13.60
2018-10-18T06:27:50.955Z,13.60
2018-10-18T06:30:19.394Z,13.60
2018-10-18T06:32:47.807Z,13.60
2018-10-18T06:35:16.696Z,13.60
2018-10-18T06:37:45.116Z,13.60
2018-10-18T06:40:14.760Z,13.70
2018-10-18T06:42:43.415Z,13.70
2018-10-18T06:45:14.096Z,13.70
2018-10-18T06:47:43.739Z,13.70
2018-10-18T06:50:18.753Z,13.60
2018-10-18T06:52:47.384Z,13.60
2018-10-18T06:55:15.902Z,13.70
2018-10-18T06:57:44.759Z,13.70
2018-10-18T07:00:15.652Z,13.60
2018-10-18T07:02:44.632Z,13.70
2018-10-18T07:05:14.125Z,13.70
2018-10-18T07:07:43.110Z,13.70
2018-10-18T07:10:11.528Z,13.70
2018-10-18T07:12:40.379Z,13.70
2018-10-18T07:15:10.580Z,13.70
2018-10-18T07:17:40.588Z,13.70
2018-10-18T07:20:10.459Z,13.70
2018-10-18T07:22:40.329Z,13.70
2018-10-18T07:25:13.082Z,13.70
2018-10-18T07:27:42.032Z,13.80
2018-10-18T07:30:11.918Z,13.80
2018-10-18T07:32:40.521Z,13.80
2018-10-18T07:35:11.051Z,13.80
2018-10-18T07:37:40.244Z,13.80
2018-10-18T07:40:13.608Z,13.80
2018-10-18T07:42:42.089Z,13.80
2018-10-18T07:45:11.288Z,13.90
2018-10-18T07:47:40.256Z,13.90
2018-10-18T07:50:09.236Z,13.90
2018-10-18T07:52:37.846Z,14.00
2018-10-18T07:55:07.215Z,14.00
2018-10-18T07:57:35.990Z,14.00
2018-10-18T08:00:05.513Z,14.00
2018-10-18T08:02:33.915Z,14.00
2018-10-18T08:05:02.373Z,14.00
2018-10-18T08:07:30.816Z,14.10
2018-10-18T08:09:59.332Z,14.10
2018-10-18T08:12:27.808Z,14.20
2018-10-18T08:14:56.280Z,14.30
2018-10-18T08:17:24.744Z,14.30
2018-10-18T08:19:53.468Z,14.30
2018-10-18T08:22:21.948Z,14.30
2018-10-18T08:24:50.346Z,14.30
2018-10-18T08:27:19.284Z,14.40
2018-10-18T08:29:47.708Z,14.40
2018-10-18T08:32:16.082Z,14.40
2018-10-18T08:34:44.512Z,14.40
2018-10-18T08:37:13.056Z,14.40
2018-10-18T08:39:41.436Z,14.40
2018-10-18T08:42:10.907Z,14.50
2018-10-18T08:44:39.317Z,14.50
2018-10-18T08:47:07.760Z,14.50
2018-10-18T08:49:36.233Z,14.60
2018-10-18T08:52:04.832Z,14.60
2018-10-18T08:54:33.280Z,14.70
2018-10-18T08:57:01.969Z,14.70
2018-10-18T08:59:30.416Z,14.80
2018-10-18T09:01:58.856Z,14.80
2018-10-18T09:04:27.560Z,14.70
2018-10-18T09:06:56.067Z,14.80
2018-10-18T09:09:24.505Z,14.80
2018-10-18T09:11:53.024Z,14.90
2018-10-18T09:14:21.504Z,14.90
2018-10-18T09:16:49.915Z,15.00
2018-10-18T09:19:18.570Z,15.10
2018-10-18T09:21:46.979Z,15.20
2018-10-18T09:24:15.403Z,15.20
2018-10-18T09:26:43.964Z,15.30
2018-10-18T09:29:12.565Z,15.20
2018-10-18T09:31:40.976Z,15.20
2018-10-18T09:34:09.625Z,15.20
2018-10-18T09:36:38.040Z,15.20
2018-10-18T09:39:07.532Z,15.20
2018-10-18T09:41:36.017Z,15.20
2018-10-18T09:44:05.544Z,15.30
2018-10-18T09:46:35.275Z,15.30
2018-10-18T09:49:04.265Z,15.50
2018-10-18T09:51:32.728Z,15.50
2018-10-18T09:54:02.010Z,15.50
2018-10-18T09:56:30.981Z,15.60
2018-10-18T09:58:59.428Z,15.60
2018-10-18T10:01:33.136Z,15.60
2018-10-18T10:04:01.568Z,15.50
2018-10-18T10:06:30.116Z,15.40
2018-10-18T10:08:58.788Z,15.50
2018-10-18T10:11:27.247Z,15.60
2018-10-18T10:13:55.649Z,15.70
2018-10-18T10:16:24.170Z,15.70
2018-10-18T10:18:52.614Z,15.70
2018-10-18T10:21:21.070Z,15.70
2018-10-18T10:23:49.528Z,15.60
2018-10-18T10:26:17.976Z,15.50
2018-10-18T10:28:46.364Z,15.40
2018-10-18T10:31:15.065Z,15.30
2018-10-18T10:33:43.463Z,15.30
2018-10-18T10:36:11.937Z,15.20
2018-10-18T10:38:40.783Z,15.10
2018-10-18T10:41:09.249Z,15.10
2018-10-18T10:43:37.623Z,15.00
2018-10-18T10:46:06.209Z,14.90
2018-10-18T10:48:34.631Z,14.90
2018-10-18T10:51:03.080Z,14.90
2018-10-18T10:53:31.587Z,14.90
2018-10-18T10:56:00.045Z,14.90
2018-10-18T10:58:28.513Z,14.90
2018-10-18T11:01:27.496Z,14.90
2018-10-18T11:03:57.187Z,14.90
2018-10-18T11:06:25.728Z,14.90
2018-10-18T11:08:54.372Z,14.80
2018-10-18T11:11:23.116Z,14.80
2018-10-18T11:13:51.634Z,14.80
2018-10-18T11:16:20.140Z,14.80
2018-10-18T11:18:48.575Z,14.70
2018-10-18T11:21:18.129Z,14.70
2018-10-18T11:23:46.503Z,14.70
2018-10-18T11:26:15.045Z,14.60
2018-10-18T11:28:44.280Z,14.60
2018-10-18T11:31:12.742Z,14.50
2018-10-18T11:33:41.185Z,14.40
2018-10-18T11:36:09.654Z,14.40
2018-10-18T11:38:38.169Z,14.30
2018-10-18T11:41:06.568Z,14.20
2018-10-18T11:43:35.007Z,14.20
2018-10-18T11:46:03.504Z,14.30
2018-10-18T11:48:31.950Z,14.20
2018-10-18T11:51:00.390Z,14.20
2018-10-18T11:53:28.840Z,14.10
2018-10-18T11:55:57.268Z,14.10
2018-10-18T11:58:25.724Z,14.10
2018-10-18T12:00:54.184Z,14.10
2018-10-18T12:03:22.636Z,14.10
2018-10-18T12:05:51.034Z,14.10
2018-10-18T12:08:19.956Z,14.10
2018-10-18T12:10:48.451Z,14.00
2018-10-18T12:13:16.912Z,14.00
2018-10-18T12:15:45.410Z,13.90
2018-10-18T12:18:14.743Z,13.90
2018-10-18T12:20:43.147Z,13.90
2018-10-18T12:23:11.679Z,13.90
2018-10-18T12:25:40.075Z,14.00
2018-10-18T12:28:08.492Z,14.20
2018-10-18T12:30:36.971Z,14.20
2018-10-18T12:33:05.399Z,14.30
2018-10-18T12:35:33.832Z,14.40
2018-10-18T12:38:02.479Z,14.50
2018-10-18T12:40:30.988Z,14.60
2018-10-18T12:42:59.317Z,14.70
2018-10-18T12:45:28.066Z,14.70
2018-10-18T12:47:56.526Z,14.70
2018-10-18T12:50:24.974Z,14.70
2018-10-18T12:52:53.698Z,14.70
2018-10-18T12:55:22.107Z,14.70
2018-10-18T12:57:50.520Z,14.70
2018-10-18T13:00:19.280Z,14.70
2018-10-18T13:02:47.708Z,14.70
2018-10-18T13:05:16.164Z,14.70
2018-10-18T13:07:45.557Z,14.70
2018-10-18T13:10:13.984Z,14.60
2018-10-18T13:12:42.497Z,14.60
2018-10-18T13:15:11.955Z,14.60
2018-10-18T13:17:40.619Z,14.60
2018-10-18T13:20:09.947Z,14.60
2018-10-18T13:22:38.580Z,14.60
2018-10-18T13:25:07.949Z,14.50
2018-10-18T13:27:36.664Z,14.50
2018-10-18T13:30:06.351Z,14.40
2018-10-18T13:32:34.699Z,14.40
2018-10-18T13:35:03.192Z,14.40
2018-10-18T13:37:31.660Z,14.40
2018-10-18T13:40:00.076Z,14.40
2018-10-18T13:42:28.505Z,14.50
2018-10-18T13:44:57.164Z,14.50
2018-10-18T13:47:25.650Z,14.50
2018-10-18T13:49:54.070Z,14.40
2018-10-18T13:52:22.556Z,14.40
2018-10-18T13:54:50.973Z,14.40
2018-10-18T13:57:19.481Z,14.50
2018-10-18T13:59:59.481Z,14.50
2018-10-18T14:02:27.900Z,14.60
2018-10-18T14:04:56.523Z,14.60
2018-10-18T14:07:24.964Z,14.60
2018-10-18T14:09:53.378Z,14.70
2018-10-18T14:12:21.789Z,14.70
2018-10-18T14:14:50.211Z,14.80
2018-10-18T14:17:18.685Z,14.90
2018-10-18T14:19:47.057Z,14.90
2018-10-18T14:22:15.532Z,15.00
2018-10-18T14:24:43.991Z,15.10
2018-10-18T14:27:12.432Z,15.20
2018-10-18T14:29:40.912Z,15.40
2018-10-18T14:32:09.417Z,15.40
2018-10-18T14:34:37.772Z,15.50
2018-10-18T14:37:06.226Z,15.40
2018-10-18T14:39:34.680Z,15.30
2018-10-18T14:42:03.116Z,15.30
2018-10-18T14:44:31.938Z,15.20
2018-10-18T14:47:02.517Z,15.10
2018-10-18T14:49:31.404Z,15.00
2018-10-18T14:52:00.456Z,15.00
2018-10-18T14:54:29.059Z,15.00
2018-10-18T14:56:57.593Z,14.90
2018-10-18T14:59:26.115Z,14.90
2018-10-18T15:01:55.011Z,14.80
2018-10-18T15:04:24.151Z,14.80
2018-10-18T15:06:54.082Z,14.70
2018-10-18T15:09:22.509Z,14.70
2018-10-18T15:11:51.532Z,14.70
2018-10-18T15:14:20.516Z,14.60
2018-10-18T15:16:48.968Z,14.60
2018-10-18T15:19:19.169Z,14.60
2018-10-18T15:21:48.144Z,14.50
2018-10-18T15:24:16.806Z,14.50
2018-10-18T15:26:45.751Z,14.40
2018-10-18T15:29:14.568Z,14.40
2018-10-18T15:31:43.020Z,14.40
2018-10-18T15:34:12.137Z,14.30
2018-10-18T15:36:40.568Z,14.30
2018-10-18T15:39:10.811Z,14.30
2018-10-18T15:41:40.560Z,14.20
2018-10-18T15:44:09.905Z,14.20
2018-10-18T15:46:38.696Z,14.20
2018-10-18T15:49:08.904Z,14.10
2018-10-18T15:51:37.788Z,14.10
2018-10-18T15:54:06.872Z,14.00
2018-10-18T15:56:36.037Z,13.90
2018-10-18T15:59:04.858Z,13.90
2018-10-18T16:01:33.522Z,13.90
2018-10-18T16:04:02.030Z,13.80
2018-10-18T16:06:30.508Z,13.80
2018-10-18T16:08:58.943Z,13.80
2018-10-18T16:11:27.977Z,13.70
2018-10-18T16:13:56.335Z,13.70
2018-10-18T16:16:25.191Z,13.60
2018-10-18T16:18:54.016Z,13.60
2018-10-18T16:21:23.380Z,13.50
2018-10-18T16:23:51.829Z,13.50
2018-10-18T16:26:22.012Z,13.40
2018-10-18T16:28:50.496Z,13.30
2018-10-18T16:31:19.083Z,13.30
2018-10-18T16:33:47.920Z,13.20
2018-10-18T16:36:16.691Z,13.20
2018-10-18T16:38:45.140Z,13.10
2018-10-18T16:41:14.047Z,13.10
2018-10-18T16:43:42.366Z,13.00
2018-10-18T16:46:11.020Z,13.00
2018-10-18T16:48:40.652Z,13.00
2018-10-18T16:51:09.424Z,12.90
2018-10-18T16:53:37.887Z,12.90
2018-10-18T16:56:06.666Z,12.80
2018-10-18T16:58:35.155Z,12.80
2018-10-18T17:01:03.905Z,12.70
2018-10-18T17:03:32.713Z,12.70
2018-10-18T17:06:01.293Z,12.70
2018-10-18T17:08:29.719Z,12.60
2018-10-18T17:10:58.311Z,12.60
2018-10-18T17:13:26.744Z,12.60
2018-10-18T17:15:55.211Z,12.50
2018-10-18T17:18:23.727Z,12.50
2018-10-18T17:20:52.218Z,12.50
2018-10-18T17:23:22.105Z,12.40
2018-10-18T17:25:51.061Z,12.40
2018-10-18T17:28:19.873Z,12.40
2018-10-18T17:30:48.310Z,12.30
2018-10-18T17:33:17.150Z,12.30
2018-10-18T17:35:45.757Z,12.20
2018-10-18T17:38:14.347Z,12.20
2018-10-18T17:40:43.150Z,12.20
2018-10-18T17:43:11.772Z,12.10
2018-10-18T17:45:40.242Z,12.10
2018-10-18T17:48:09.265Z,12.00
2018-10-18T17:50:37.738Z,12.10
2018-10-18T17:53:06.695Z,12.00
2018-10-18T17:55:35.411Z,12.00
2018-10-18T17:58:04.430Z,12.00
2018-10-18T18:00:33.447Z,11.90
2018-10-18T18:03:02.276Z,11.90
2018-10-18T18:05:30.940Z,11.90
2018-10-18T18:08:00.034Z,11.80
2018-10-18T18:10:28.856Z,11.80
2018-10-18T18:12:57.445Z,11.70
2018-10-18T18:15:26.394Z,11.80
2018-10-18T18:17:54.933Z,11.70
2018-10-18T18:20:26.845Z,11.70
2018-10-18T18:22:55.837Z,11.70
2018-10-18T18:25:24.333Z,11.70
2018-10-18T18:27:53.283Z,11.60
2018-10-18T18:30:22.430Z,11.60
2018-10-18T18:32:50.925Z,11.60
2018-10-18T18:35:19.362Z,11.60
2018-10-18T18:37:47.914Z,11.50
2018-10-18T18:40:17.291Z,11.50
2018-10-18T18:42:45.755Z,11.50
2018-10-18T18:45:19.451Z,11.40
2018-10-18T18:47:47.994Z,11.40
2018-10-18T18:50:16.562Z,11.40
2018-10-18T18:52:45.251Z,11.40
2018-10-18T18:55:13.919Z,11.30
2018-10-18T18:57:43.669Z,11.30
2018-10-18T19:00:12.793Z,11.20
2018-10-18T19:02:41.214Z,11.20
2018-10-18T19:05:09.857Z,11.10
2018-10-18T19:07:38.940Z,11.10
2018-10-18T19:10:07.750Z,11.10
2018-10-18T19:12:36.180Z,11.10
2018-10-18T19:15:04.962Z,11.10
2018-10-18T19:17:33.404Z,11.10
2018-10-18T19:20:01.865Z,11.00
2018-10-18T19:22:30.608Z,11.00
2018-10-18T19:24:59.025Z,10.90
2018-10-18T19:27:27.542Z,10.90
2018-10-18T19:29:55.972Z,10.90
2018-10-18T19:32:24.472Z,10.90
2018-10-18T19:34:53.620Z,10.80
2018-10-18T19:37:22.356Z,10.80
2018-10-18T19:39:50.779Z,10.80
2018-10-18T19:42:19.221Z,10.80
2018-10-18T19:44:48.003Z,10.80
2018-10-18T19:47:16.481Z,10.70
2018-10-18T19:49:44.925Z,10.70
2018-10-18T19:52:13.729Z,10.70
2018-10-18T19:54:42.116Z,10.70
2018-10-18T19:57:10.512Z,10.70
2018-10-18T19:59:40.001Z,10.70
2018-10-18T20:02:08.546Z,10.70
2018-10-18T20:04:36.965Z,10.60
2018-10-18T20:07:05.640Z,10.60
2018-10-18T20:09:34.092Z,10.60
2018-10-18T20:12:02.546Z,10.50
2018-10-18T20:14:31.200Z,10.50
2018-10-18T20:16:59.668Z,10.50
2018-10-18T20:19:28.104Z,10.50
2018-10-18T20:21:56.560Z,10.50
2018-10-18T20:24:25.044Z,10.50
2018-10-18T20:26:53.514Z,10.50
2018-10-18T20:29:21.987Z,10.50
2018-10-18T20:31:50.417Z,10.50
2018-10-18T20:34:18.826Z,10.40
2018-10-18T20:36:47.553Z,10.40
2018-10-18T20:39:16.065Z,10.40
2018-10-18T20:41:44.459Z,10.30
2018-10-18T20:44:13.084Z,10.30
2018-10-18T20:46:41.591Z,10.30
2018-10-18T20:49:10.026Z,10.30
2018-10-18T20:51:38.500Z,10.30
2018-10-18T20:54:06.981Z,10.30
2018-10-18T20:56:35.433Z,10.20
2018-10-18T20:59:04.115Z,10.20
2018-10-18T21:01:32.548Z,10.20
2018-10-18T21:04:00.946Z,10.10
2018-10-18T21:06:29.732Z,10.10
2018-10-18T21:08:58.477Z,10.10
2018-10-18T21:11:26.997Z,10.10
2018-10-18T21:13:55.715Z,10.10
2018-10-18T21:16:24.132Z,10.00
2018-10-18T21:18:52.548Z,9.90
2018-10-18T21:21:21.268Z,9.90
2018-10-18T21:23:49.690Z,9.90
2018-10-18T21:26:18.127Z,9.90
2018-10-18T21:28:46.605Z,9.80
2018-10-18T21:31:15.021Z,9.80
2018-10-18T21:33:43.420Z,9.70
2018-10-18T21:36:11.856Z,9.70
2018-10-18T21:38:40.355Z,9.70
2018-10-18T21:41:08.804Z,9.60
2018-10-18T21:43:37.288Z,9.60
2018-10-18T21:46:05.755Z,9.60
2018-10-18T21:48:34.284Z,9.60
2018-10-18T21:51:02.780Z,9.60
2018-10-18T21:53:31.161Z,9.50
2018-10-18T21:56:00.438Z,9.40
2018-10-18T21:58:29.585Z,9.40
2018-10-18T22:00:58.024Z,9.40
2018-10-18T22:03:26.453Z,9.30
2018-10-18T22:05:55.149Z,9.30
2018-10-18T22:08:23.555Z,9.30
2018-10-18T22:10:52.063Z,9.30
2018-10-18T22:13:20.769Z,9.20
2018-10-18T22:15:49.199Z,9.20
2018-10-18T22:18:17.612Z,9.20
2018-10-18T22:20:46.021Z,9.20
2018-10-18T22:23:14.551Z,9.20
2018-10-18T22:25:42.896Z,9.20
2018-10-18T22:28:11.399Z,9.10
2018-10-18T22:30:39.835Z,9.10
2018-10-18T22:33:08.274Z,9.10
2018-10-18T22:35:36.780Z,9.10
2018-10-18T22:38:05.435Z,9.00
2018-10-18T22:40:33.800Z,9.00
2018-10-18T22:43:02.252Z,9.00
2018-10-18T22:45:30.652Z,8.80
2018-10-18T22:47:59.074Z,9.00
2018-10-18T22:50:27.704Z,8.90
2018-10-18T22:52:56.201Z,8.90
2018-10-18T22:55:24.620Z,8.90
2018-10-18T22:57:53.232Z,8.90
2018-10-18T23:00:21.622Z,8.90
2018-10-18T23:02:50.016Z,8.90
2018-10-18T23:05:18.465Z,8.90
2018-10-18T23:07:46.908Z,8.80
2018-10-18T23:10:15.345Z,8.80
2018-10-18T23:12:43.954Z,8.70
2018-10-18T23:15:12.368Z,8.70
2018-10-18T23:17:40.724Z,8.70
2018-10-18T23:20:09.567Z,8.70
2018-10-18T23:22:38.020Z,8.70
2018-10-18T23:25:06.746Z,8.70
2018-10-18T23:27:35.462Z,8.70
2018-10-18T23:30:03.954Z,8.70
2018-10-18T23:32:32.351Z,8.70
2018-10-18T23:35:00.834Z,8.60
2018-10-18T23:37:29.358Z,8.60
2018-10-18T23:39:57.768Z,8.60
2018-10-18T23:42:26.233Z,8.60
2018-10-18T23:44:54.628Z,8.60
2018-10-18T23:47:23.060Z,8.60
2018-10-18T23:49:51.512Z,8.50
2018-10-18T23:52:19.911Z,8.50
2018-10-18T23:54:48.289Z,8.40
2018-10-18T23:57:16.969Z,8.40
2018-10-18T23:59:45.212Z,8.40
